createdAt,value
2022-10-25T00:02:03.023Z,15.30
2022-10-25T00:12:05.952Z,15.30
2022-10-25T00:22:07.591Z,15.30
2022-10-25T00:32:09.208Z,15.30
2022-10-25T00:42:15.691Z,15.20
2022-10-25T00:52:17.455Z,15.20
2022-10-25T01:02:21.780Z,15.20
2022-10-25T01:12:23.431Z,15.20
2022-10-25T01:22:35.769Z,15.20
2022-10-25T01:32:45.884Z,15.20
2022-10-25T01:43:06.503Z,15.10
2022-10-25T01:53:08.650Z,15.10
2022-10-25T02:03:18.569Z,15.00
2022-10-25T02:13:52.020Z,15.00
2022-10-25T02:23:55.192Z,15.00
2022-10-25T02:33:56.842Z,15.00
2022-10-25T02:43:58.467Z,15.00
2022-10-25T02:54:00.075Z,15.00
2022-10-25T03:04:01.752Z,15.00
2022-10-25T03:14:03.447Z,14.90
2022-10-25T03:24:06.030Z,14.90
2022-10-25T03:34:07.655Z,14.80
2022-10-25T03:44:09.252Z,14.80
2022-10-25T03:54:10.877Z,14.80
2022-10-25T04:04:12.537Z,14.80
2022-10-25T04:14:14.193Z,14.70
2022-10-25T04:24:15.904Z,14.70
2022-10-25T04:34:17.582Z,14.60
2022-10-25T04:44:19.232Z,14.60
2022-10-25T04:54:20.866Z,14.50
2022-10-25T05:04:22.586Z,14.50
2022-10-25T05:14:24.231Z,14.40
2022-10-25T05:24:26.339Z,14.40
2022-10-25T05:34:27.955Z,14.40
2022-10-25T05:44:29.588Z,14.40
2022-10-25T05:54:31.348Z,14.50
2022-10-25T06:04:34.974Z,14.50
2022-10-25T06:14:36.724Z,14.50
2022-10-25T06:24:38.656Z,14.50
2022-10-25T06:34:40.251Z,14.50
2022-10-25T06:44:41.885Z,14.50
2022-10-25T06:54:46.259Z,14.60
2022-10-25T07:04:47.918Z,14.70
2022-10-25T07:14:49.523Z,14.80
2022-10-25T07:24:51.252Z,15.00
2022-10-25T07:34:52.897Z,15.20
2022-10-25T07:44:54.614Z,15.30
2022-10-25T07:54:56.235Z,15.50
2022-10-25T08:04:57.997Z,15.50
2022-10-25T08:14:59.651Z,15.60
2022-10-25T08:25:02.755Z,15.70
2022-10-25T08:35:04.685Z,15.80
2022-10-25T08:45:29.802Z,16.00
2022-10-25T08:55:44.631Z,16.30
2022-10-25T09:06:23.258Z,16.50
2022-10-25T09:16:34.519Z,16.70
2022-10-25T09:26:59.977Z,17.00
2022-10-25T09:37:16.676Z,17.50
2022-10-25T09:47:25.528Z,17.70
2022-10-25T09:57:27.165Z,17.70
2022-10-25T10:07:35.836Z,17.60
2022-10-25T10:17:37.577Z,17.50
2022-10-25T10:27:41.674Z,17.60
2022-10-25T10:37:43.751Z,17.70
2022-10-25T10:47:51.238Z,17.90
2022-10-25T10:57:56.129Z,18.10
2022-10-25T11:08:20.986Z,18.10
2022-10-25T11:18:45.485Z,18.30
2022-10-25T11:29:12.185Z,18.10
2022-10-25T11:39:33.045Z,18.00
2022-10-25T11:49:56.736Z,17.80
2022-10-25T12:00:10.601Z,17.90
2022-10-25T12:10:33.177Z,18.10
2022-10-25T12:20:37.030Z,18.10
2022-10-25T12:30:41.104Z,18.20
2022-10-25T12:40:47.636Z,18.30
2022-10-25T12:51:07.976Z,18.10
2022-10-25T13:01:44.226Z,18.10
2022-10-25T13:12:01.280Z,18.10
2022-10-25T13:22:12.244Z,18.20
2022-10-25T13:32:22.642Z,18.30
2022-10-25T13:42:27.269Z,18.50
2022-10-25T13:52:32.486Z,18.50
2022-10-25T14:03:05.903Z,18.30
2022-10-25T14:13:24.442Z,18.30
2022-10-25T14:23:30.272Z,18.30
2022-10-25T14:33:53.214Z,18.40
2022-10-25T14:43:55.832Z,18.30
2022-10-25T14:54:03.144Z,18.70
2022-10-25T15:04:04.852Z,18.90
2022-10-25T15:14:20.256Z,18.80
2022-10-25T15:24:24.813Z,18.60
2022-10-25T15:34:26.520Z,18.30
2022-10-25T15:44:28.121Z,18.00
2022-10-25T15:54:29.748Z,17.70
2022-10-25T16:04:31.350Z,17.30
2022-10-25T16:14:34.955Z,17.00
2022-10-25T16:24:36.570Z,16.80
2022-10-25T16:34:38.228Z,16.50
2022-10-25T16:44:39.834Z,16.30
2022-10-25T16:54:41.847Z,16.10
2022-10-25T17:04:43.585Z,15.90
2022-10-25T17:14:45.219Z,15.70
2022-10-25T17:24:46.833Z,15.50
2022-10-25T17:34:48.447Z,15.30
2022-10-25T17:44:50.072Z,15.00
2022-10-25T17:54:51.655Z,15.00
2022-10-25T18:05:18.979Z,14.80
2022-10-25T18:15:15.092Z,14.70
2022-10-25T18:25:16.955Z,14.50
2022-10-25T18:35:18.705Z,14.40
2022-10-25T18:45:20.364Z,14.30
2022-10-25T18:55:26.465Z,14.10
2022-10-25T19:05:30.023Z,14.00
2022-10-25T19:15:31.873Z,13.90
2022-10-25T19:25:33.773Z,13.80
2022-10-25T19:35:35.401Z,13.50
2022-10-25T19:45:42.066Z,13.60
2022-10-25T19:55:43.666Z,13.60
2022-10-25T20:05:45.264Z,13.40
2022-10-25T20:15:51.495Z,13.40
2022-10-25T20:25:53.225Z,13.30
2022-10-25T20:35:54.872Z,13.20
2022-10-25T20:45:56.531Z,13.20
2022-10-25T20:55:58.188Z,13.20
2022-10-25T21:06:03.945Z,13.20
2022-10-25T21:16:11.406Z,13.00
2022-10-25T21:26:13.063Z,12.90
2022-10-25T21:36:16.124Z,12.90
2022-10-25T21:46:20.199Z,12.90
2022-10-25T21:56:31.195Z,12.90
2022-10-25T22:06:33.338Z,12.70
2022-10-25T22:16:35.542Z,12.70
2022-10-25T22:26:39.354Z,12.60
2022-10-25T22:36:42.238Z,12.60
2022-10-25T22:46:43.932Z,12.50
2022-10-25T22:56:45.560Z,12.50
2022-10-25T23:06:47.164Z,12.50
2022-10-25T23:16:48.745Z,12.60
2022-10-25T23:26:50.349Z,12.50
2022-10-25T23:36:52.160Z,12.50
2022-10-25T23:46:53.775Z,12.50
2022-10-25T23:56:55.394Z,12.40
